createdAt,value
2022-12-15T00:00:11.238Z,6.80
2022-12-15T00:02:56.824Z,6.95
2022-12-15T00:05:42.214Z,6.91
2022-12-15T00:08:29.302Z,6.94
2022-12-15T00:11:14.847Z,6.83
2022-12-15T00:14:00.310Z,6.70
2022-12-15T00:16:45.887Z,6.83
2022-12-15T00:19:31.364Z,6.97
2022-12-15T00:22:17.127Z,6.96
2022-12-15T00:25:02.860Z,6.91
2022-12-15T00:27:48.405Z,6.90
2022-12-15T00:30:33.827Z,6.90
2022-12-15T00:33:19.029Z,6.83
2022-12-15T00:36:04.455Z,6.83
2022-12-15T00:38:41.643Z,6.87
2022-12-15T00:41:08.798Z,6.85
2022-12-15T00:43:36.818Z,6.90
2022-12-15T00:46:22.824Z,6.85
2022-12-15T00:48:49.944Z,6.82
2022-12-15T00:51:17.820Z,6.80
2022-12-15T00:54:04.097Z,6.90
2022-12-15T00:56:50.523Z,7.01
2022-12-15T00:59:35.995Z,6.95
2022-12-15T01:02:22.069Z,6.87
2022-12-15T01:05:07.614Z,6.83
2022-12-15T01:07:53.291Z,6.84
2022-12-15T01:10:38.474Z,6.83
2022-12-15T01:13:24.599Z,6.86
2022-12-15T01:16:10.800Z,7.06
2022-12-15T01:18:56.235Z,7.13
2022-12-15T01:21:25.082Z,7.01
2022-12-15T01:23:52.572Z,7.09
2022-12-15T01:26:19.830Z,7.07
2022-12-15T01:28:46.750Z,7.04
2022-12-15T01:31:14.120Z,7.03
2022-12-15T01:33:42.793Z,7.18
2022-12-15T01:36:10.709Z,7.26
2022-12-15T01:38:37.734Z,7.24
2022-12-15T01:41:09.820Z,7.12
2022-12-15T01:43:39.635Z,7.13
2022-12-15T01:46:14.163Z,7.15
2022-12-15T01:48:46.565Z,7.27
2022-12-15T01:51:27.108Z,7.25
2022-12-15T01:53:57.970Z,7.27
2022-12-15T01:56:29.146Z,7.15
2022-12-15T01:59:03.296Z,7.10
2022-12-15T02:02:02.990Z,7.12
2022-12-15T02:04:31.982Z,7.18
2022-12-15T02:06:58.867Z,7.24
2022-12-15T02:09:27.324Z,7.19
2022-12-15T02:12:21.866Z,7.24
2022-12-15T02:15:24.555Z,7.20
2022-12-15T02:18:12.496Z,7.20
2022-12-15T02:21:02.534Z,7.14
2022-12-15T02:23:32.671Z,7.17
2022-12-15T02:26:24.310Z,7.31
2022-12-15T02:29:18.456Z,7.31
2022-12-15T02:32:14.464Z,7.30
2022-12-15T02:34:47.874Z,7.25
2022-12-15T02:37:21.211Z,7.31
2022-12-15T02:39:48.411Z,7.32
2022-12-15T02:42:16.650Z,7.29
2022-12-15T02:44:55.631Z,7.42
2022-12-15T02:47:22.561Z,7.46
2022-12-15T02:50:07.873Z,7.44
2022-12-15T02:52:51.499Z,7.44
2022-12-15T02:55:50.366Z,7.34
2022-12-15T02:58:29.843Z,7.42
2022-12-15T03:01:09.116Z,7.55
2022-12-15T03:03:38.460Z,7.59
2022-12-15T03:06:05.954Z,7.68
2022-12-15T03:08:32.949Z,7.60
2022-12-15T03:11:00.210Z,7.55
2022-12-15T03:13:27.252Z,7.53
2022-12-15T03:15:54.677Z,7.53
2022-12-15T03:18:21.841Z,7.57
2022-12-15T03:20:50.276Z,7.66
2022-12-15T03:23:17.306Z,7.66
2022-12-15T03:25:49.948Z,7.65
2022-12-15T03:28:16.963Z,7.57
2022-12-15T03:30:44.808Z,7.47
2022-12-15T03:33:11.883Z,7.46
2022-12-15T03:35:38.779Z,7.54
2022-12-15T03:38:05.731Z,7.50
2022-12-15T03:40:32.810Z,7.51
2022-12-15T03:42:59.763Z,7.52
2022-12-15T03:45:28.406Z,7.42
2022-12-15T03:47:56.963Z,7.43
2022-12-15T03:50:26.478Z,7.40
2022-12-15T03:52:55.722Z,7.48
2022-12-15T03:55:23.706Z,7.54
2022-12-15T03:57:51.372Z,7.46
2022-12-15T04:00:20.367Z,7.32
2022-12-15T04:02:50.113Z,7.31
2022-12-15T04:05:26.967Z,7.25
2022-12-15T04:07:55.374Z,7.26
2022-12-15T04:10:26.274Z,7.21
2022-12-15T04:12:58.874Z,7.38
2022-12-15T04:15:26.625Z,7.34
2022-12-15T04:17:54.005Z,7.28
2022-12-15T04:20:21.347Z,7.20
2022-12-15T04:22:49.826Z,7.25
2022-12-15T04:25:39.003Z,7.32
2022-12-15T04:28:25.200Z,7.33
2022-12-15T04:31:14.261Z,7.32
2022-12-15T04:34:06.493Z,7.28
2022-12-15T04:36:53.228Z,7.26
2022-12-15T04:39:38.776Z,7.13
2022-12-15T04:42:24.477Z,7.10
2022-12-15T04:45:16.997Z,7.29
2022-12-15T04:48:05.855Z,7.24
2022-12-15T04:50:51.444Z,7.27
2022-12-15T04:53:38.130Z,7.15
2022-12-15T04:56:28.318Z,7.07
2022-12-15T04:59:13.830Z,7.01
2022-12-15T05:01:59.093Z,7.06
2022-12-15T05:04:44.528Z,7.18
2022-12-15T05:07:30.157Z,7.13
2022-12-15T05:10:16.050Z,7.14
2022-12-15T05:13:02.967Z,7.07
2022-12-15T05:15:49.141Z,6.91
2022-12-15T05:18:34.481Z,6.88
2022-12-15T05:21:20.024Z,7.05
2022-12-15T05:24:05.547Z,7.10
2022-12-15T05:26:53.276Z,7.00
2022-12-15T05:29:40.251Z,7.02
2022-12-15T05:32:08.568Z,6.87
2022-12-15T05:34:37.353Z,6.91
2022-12-15T05:37:05.818Z,7.19
2022-12-15T05:39:33.093Z,7.06
2022-12-15T05:42:00.259Z,7.09
2022-12-15T05:44:28.968Z,6.97
2022-12-15T05:46:55.883Z,6.94
2022-12-15T05:49:25.949Z,7.00
2022-12-15T05:51:53.054Z,7.18
2022-12-15T05:54:20.357Z,7.10
2022-12-15T05:56:50.241Z,7.11
2022-12-15T05:59:17.997Z,7.12
2022-12-15T06:01:45.240Z,7.03
2022-12-15T06:04:15.314Z,6.94
2022-12-15T06:06:42.314Z,7.00
2022-12-15T06:09:10.110Z,7.16
2022-12-15T06:11:37.730Z,7.16
2022-12-15T06:14:04.874Z,7.17
2022-12-15T06:16:32.004Z,7.16
2022-12-15T06:19:01.169Z,7.12
2022-12-15T06:21:36.789Z,7.05
2022-12-15T06:24:05.689Z,7.28
2022-12-15T06:26:34.135Z,7.29
2022-12-15T06:29:05.346Z,7.30
2022-12-15T06:31:32.926Z,7.25
2022-12-15T06:34:02.409Z,7.22
2022-12-15T06:36:30.907Z,7.16
2022-12-15T06:39:04.436Z,7.37
2022-12-15T06:41:32.425Z,7.56
2022-12-15T06:44:00.213Z,7.54
2022-12-15T06:46:28.857Z,7.64
2022-12-15T06:48:56.560Z,7.63
2022-12-15T06:51:23.975Z,7.51
2022-12-15T06:53:54.425Z,7.62
2022-12-15T06:56:32.206Z,7.86
2022-12-15T06:59:00.304Z,7.75
2022-12-15T07:01:27.740Z,7.68
2022-12-15T07:03:55.758Z,7.64
2022-12-15T07:06:23.123Z,7.74
2022-12-15T07:08:52.640Z,7.76
2022-12-15T07:11:21.193Z,7.62
2022-12-15T07:13:52.513Z,7.56
2022-12-15T07:16:21.613Z,7.91
2022-12-15T07:18:49.429Z,7.74
2022-12-15T07:21:16.807Z,7.93
2022-12-15T07:24:00.826Z,7.87
2022-12-15T07:26:28.887Z,8.20
2022-12-15T07:28:56.299Z,8.03
2022-12-15T07:31:23.782Z,7.87
2022-12-15T07:33:52.752Z,7.72
2022-12-15T07:36:20.215Z,7.72
2022-12-15T07:38:50.529Z,7.58
2022-12-15T07:41:19.246Z,7.76
2022-12-15T07:43:47.224Z,7.76
2022-12-15T07:46:14.383Z,7.47
2022-12-15T07:48:41.545Z,7.37
2022-12-15T07:51:17.385Z,7.68
2022-12-15T07:53:47.043Z,7.84
2022-12-15T07:56:13.924Z,7.56
2022-12-15T07:58:41.117Z,7.50
2022-12-15T08:01:12.782Z,7.50
2022-12-15T08:03:41.190Z,7.79
2022-12-15T08:06:11.405Z,7.82
2022-12-15T08:08:39.304Z,7.83
2022-12-15T08:11:11.647Z,7.61
2022-12-15T08:16:26.603Z,7.43
2022-12-15T08:18:53.999Z,7.42
2022-12-15T08:21:20.940Z,7.33
2022-12-15T08:23:48.212Z,7.57
2022-12-15T08:26:17.089Z,7.43
2022-12-15T08:28:44.320Z,7.41
2022-12-15T08:31:16.422Z,7.30
2022-12-15T08:33:43.471Z,7.20
2022-12-15T08:36:13.190Z,7.15
2022-12-15T08:38:42.089Z,7.22
2022-12-15T08:41:16.987Z,7.25
2022-12-15T08:43:48.537Z,7.39
2022-12-15T08:46:18.316Z,7.35
2022-12-15T08:48:46.260Z,7.28
2022-12-15T08:51:13.861Z,7.22
2022-12-15T08:53:40.802Z,7.16
2022-12-15T08:56:10.395Z,7.10
2022-12-15T08:58:37.421Z,7.06
2022-12-15T09:01:07.535Z,7.16
2022-12-15T09:03:36.163Z,7.25
2022-12-15T09:06:07.966Z,7.10
2022-12-15T09:08:36.057Z,7.08
2022-12-15T09:11:03.637Z,6.95
2022-12-15T09:13:31.094Z,6.99
2022-12-15T09:16:11.290Z,7.06
2022-12-15T09:18:41.110Z,7.18
2022-12-15T09:21:08.466Z,7.10
2022-12-15T09:23:37.009Z,7.14
2022-12-15T09:26:10.037Z,7.24
2022-12-15T09:28:38.484Z,7.16
2022-12-15T09:31:16.987Z,7.27
2022-12-15T09:33:44.877Z,7.27
2022-12-15T09:36:15.528Z,7.03
2022-12-15T09:38:44.146Z,6.57
2022-12-15T09:41:14.069Z,6.56
2022-12-15T09:43:50.301Z,6.72
2022-12-15T10:17:50.341Z,6.26
2022-12-15T10:20:20.693Z,6.60
2022-12-15T10:25:35.463Z,6.92
2022-12-15T10:28:27.253Z,7.06
2022-12-15T10:31:08.086Z,6.89
2022-12-15T10:33:39.703Z,6.91
2022-12-15T10:36:15.733Z,6.86
2022-12-15T10:38:47.520Z,6.77
2022-12-15T10:41:26.748Z,6.77
2022-12-15T10:43:54.720Z,6.54
2022-12-15T10:46:29.921Z,6.60
2022-12-15T10:49:08.913Z,6.55
2022-12-15T10:51:43.737Z,6.59
2022-12-15T10:54:10.593Z,6.52
2022-12-15T10:56:55.788Z,6.55
2022-12-15T10:59:31.944Z,6.53
2022-12-15T11:02:23.981Z,6.67
2022-12-15T11:05:02.811Z,6.74
2022-12-15T11:07:42.285Z,6.73
2022-12-15T11:10:53.498Z,6.42
2022-12-15T11:13:22.942Z,6.35
2022-12-15T11:15:53.213Z,6.21
2022-12-15T11:18:42.356Z,6.06
2022-12-15T11:21:22.159Z,6.07
2022-12-15T11:24:02.088Z,6.14
2022-12-15T11:27:11.714Z,6.10
2022-12-15T11:30:14.221Z,6.10
2022-12-15T11:32:53.761Z,6.03
2022-12-15T11:35:43.951Z,6.02
2022-12-15T11:38:28.938Z,6.13
2022-12-15T11:41:01.523Z,6.16
2022-12-15T11:43:53.081Z,6.36
2022-12-15T11:46:20.158Z,6.19
2022-12-15T11:49:20.580Z,6.27
2022-12-15T11:52:02.449Z,6.41
2022-12-15T11:54:34.904Z,6.50
2022-12-15T11:57:32.663Z,6.42
2022-12-15T12:00:13.765Z,6.47
2022-12-15T12:02:55.954Z,6.48
2022-12-15T12:05:29.093Z,6.53
2022-12-15T12:08:29.476Z,6.56
2022-12-15T12:11:08.913Z,6.43
2022-12-15T12:14:11.485Z,6.33
2022-12-15T12:16:41.877Z,6.18
2022-12-15T12:19:18.884Z,6.24
2022-12-15T12:21:51.297Z,6.32
2022-12-15T12:24:30.518Z,6.34
2022-12-15T12:27:04.421Z,6.38
2022-12-15T12:29:58.776Z,6.24
2022-12-15T12:32:47.423Z,6.21
2022-12-15T12:35:33.721Z,6.25
2022-12-15T12:38:04.492Z,6.22
2022-12-15T12:40:41.017Z,6.20
2022-12-15T12:43:22.866Z,6.25
2022-12-15T12:46:01.380Z,6.21
2022-12-15T12:48:34.927Z,6.23
2022-12-15T12:51:31.417Z,6.15
2022-12-15T12:53:59.537Z,6.24
2022-12-15T12:56:45.575Z,6.32
2022-12-15T12:59:29.672Z,6.29
2022-12-15T13:01:58.910Z,6.25
2022-12-15T13:04:28.596Z,6.04
2022-12-15T13:06:56.892Z,5.91
2022-12-15T13:09:37.067Z,5.67
2022-12-15T13:12:20.629Z,5.61
2022-12-15T13:14:51.969Z,5.59
2022-12-15T13:17:38.295Z,5.65
2022-12-15T13:20:17.889Z,5.69
2022-12-15T13:22:44.999Z,5.69
2022-12-15T13:25:38.264Z,5.76
2022-12-15T13:28:24.820Z,5.75
2022-12-15T13:31:16.924Z,5.70
2022-12-15T13:33:52.849Z,5.59
2022-12-15T13:36:38.088Z,5.57
2022-12-15T13:39:17.335Z,5.53
2022-12-15T13:42:15.130Z,5.45
2022-12-15T13:44:52.007Z,5.38
2022-12-15T13:47:18.829Z,5.34
2022-12-15T13:50:10.489Z,5.33
2022-12-15T13:55:40.277Z,5.22
2022-12-15T13:58:18.158Z,5.18
2022-12-15T14:00:52.390Z,5.24
2022-12-15T14:03:19.830Z,5.17
2022-12-15T14:05:58.710Z,5.08
2022-12-15T14:08:29.442Z,5.04
2022-12-15T14:10:58.993Z,5.01
2022-12-15T14:13:28.177Z,5.07
2022-12-15T14:16:03.319Z,5.34
2022-12-15T14:18:32.953Z,5.36
2022-12-15T14:21:01.369Z,5.61
2022-12-15T14:23:31.085Z,5.70
2022-12-15T14:26:07.370Z,5.54
2022-12-15T14:28:36.959Z,5.14
2022-12-15T14:31:23.198Z,4.98
2022-12-15T14:34:18.801Z,5.40
2022-12-15T14:36:46.245Z,5.50
2022-12-15T14:39:19.176Z,5.11
2022-12-15T14:41:49.037Z,4.95
2022-12-15T14:44:38.074Z,5.20
2022-12-15T14:47:16.253Z,4.80
2022-12-15T14:49:45.544Z,4.55
2022-12-15T14:52:34.500Z,4.79
2022-12-15T14:55:22.046Z,4.90
2022-12-15T14:57:53.599Z,5.11
2022-12-15T15:00:29.711Z,5.34
2022-12-15T15:03:09.887Z,6.87
2022-12-15T15:03:10.727Z,5.28
2022-12-15T15:03:18.184Z,5.37
2022-12-15T15:05:59.484Z,5.30
2022-12-15T15:08:34.534Z,4.72
2022-12-15T15:11:29.708Z,4.26
2022-12-15T15:14:00.457Z,4.06
2022-12-15T15:16:27.704Z,3.91
2022-12-15T15:18:56.504Z,3.85
2022-12-15T15:21:29.818Z,3.70
2022-12-15T15:24:09.831Z,3.67
2022-12-15T15:26:37.270Z,3.64
2022-12-15T15:29:25.011Z,3.66
2022-12-15T15:31:53.313Z,3.66
2022-12-15T15:34:20.222Z,3.62
2022-12-15T15:36:47.460Z,3.42
2022-12-15T15:39:16.124Z,3.37
2022-12-15T15:41:43.087Z,3.40
2022-12-15T15:44:15.491Z,3.43
2022-12-15T15:46:48.575Z,3.53
2022-12-15T15:49:19.781Z,3.52
2022-12-15T15:51:47.537Z,3.49
2022-12-15T15:54:18.084Z,3.50
2022-12-15T15:56:45.126Z,3.47
2022-12-15T15:59:14.084Z,3.57
2022-12-15T16:01:41.247Z,3.60
2022-12-15T16:04:08.408Z,3.79
2022-12-15T16:06:36.178Z,3.85
2022-12-15T16:09:05.347Z,3.83
2022-12-15T16:11:32.485Z,3.73
2022-12-15T16:13:59.413Z,3.60
2022-12-15T16:16:31.449Z,3.54
2022-12-15T16:18:59.151Z,3.38
2022-12-15T16:21:28.065Z,3.28
2022-12-15T16:23:57.266Z,3.33
2022-12-15T16:26:30.623Z,3.31
2022-12-15T16:28:58.314Z,3.27
2022-12-15T16:31:41.227Z,3.14
2022-12-15T16:34:09.065Z,3.10
2022-12-15T16:36:36.608Z,3.08
2022-12-15T16:39:04.746Z,3.01
2022-12-15T16:41:31.628Z,3.00
2022-12-15T16:43:58.808Z,3.05
2022-12-15T16:46:26.176Z,3.09
2022-12-15T16:48:53.695Z,3.19
2022-12-15T16:51:37.179Z,3.13
2022-12-15T16:54:04.364Z,3.11
2022-12-15T16:56:31.277Z,3.14
2022-12-15T16:59:30.797Z,3.49
2022-12-15T17:01:45.471Z,3.56
2022-12-15T17:04:12.851Z,3.51
2022-12-15T17:06:40.052Z,3.50
2022-12-15T17:09:08.942Z,3.43
2022-12-15T17:11:36.052Z,3.38
2022-12-15T17:14:03.115Z,3.38
2022-12-15T17:16:30.098Z,3.68
2022-12-15T17:18:57.108Z,3.90
2022-12-15T17:21:30.823Z,3.91
2022-12-15T17:24:06.451Z,4.09
2022-12-15T17:26:36.479Z,3.73
2022-12-15T17:29:16.198Z,3.75
2022-12-15T17:31:43.137Z,4.16
2022-12-15T17:34:32.593Z,4.14
2022-12-15T17:37:02.972Z,4.02
2022-12-15T17:39:31.212Z,4.07
2022-12-15T17:42:00.542Z,4.40
2022-12-15T17:44:33.581Z,4.44
2022-12-15T17:47:02.535Z,4.49
2022-12-15T17:49:35.025Z,3.89
2022-12-15T17:52:15.702Z,3.89
2022-12-15T17:54:42.739Z,4.15
2022-12-15T17:57:12.723Z,4.04
2022-12-15T17:59:39.794Z,4.36
2022-12-15T18:02:08.732Z,4.37
2022-12-15T18:04:35.954Z,4.04
2022-12-15T18:07:02.961Z,4.11
2022-12-15T18:09:29.998Z,4.26
2022-12-15T18:11:56.963Z,4.43
2022-12-15T18:14:24.129Z,4.44
2022-12-15T18:16:51.026Z,4.64
2022-12-15T18:19:18.009Z,3.67
2022-12-15T18:21:45.003Z,3.40
2022-12-15T18:24:21.742Z,3.38
2022-12-15T18:26:48.977Z,3.72
2022-12-15T18:29:20.443Z,3.90
2022-12-15T18:31:48.980Z,3.31
2022-12-15T18:34:21.164Z,3.87
2022-12-15T18:36:48.532Z,3.59
2022-12-15T18:39:19.650Z,3.39
2022-12-15T18:41:47.360Z,3.43
2022-12-15T18:44:26.570Z,3.35
2022-12-15T18:46:55.121Z,3.76
2022-12-15T18:49:23.341Z,3.43
2022-12-15T18:51:50.600Z,3.41
2022-12-15T18:54:20.979Z,3.53
2022-12-15T18:56:48.091Z,3.11
2022-12-15T18:59:17.231Z,3.20
2022-12-15T19:01:46.892Z,3.19
2022-12-15T19:04:14.221Z,3.25
2022-12-15T19:06:41.571Z,3.22
2022-12-15T19:09:19.769Z,3.21
2022-12-15T19:12:06.788Z,3.34
2022-12-15T19:14:43.183Z,3.30
2022-12-15T19:17:29.149Z,3.02
2022-12-15T19:20:14.841Z,2.49
2022-12-15T19:22:42.682Z,2.17
2022-12-15T19:25:25.132Z,2.28
2022-12-15T19:27:59.411Z,2.23
2022-12-15T19:30:29.735Z,2.38
2022-12-15T19:32:57.481Z,2.88
2022-12-15T19:35:25.980Z,2.92
2022-12-15T19:37:56.101Z,3.10
2022-12-15T19:40:27.745Z,2.29
2022-12-15T19:42:55.554Z,1.97
2022-12-15T19:45:28.009Z,1.99
2022-12-15T19:47:55.754Z,1.92
2022-12-15T19:50:30.123Z,2.00
2022-12-15T19:53:01.994Z,1.77
2022-12-15T19:55:33.096Z,1.80
2022-12-15T19:58:01.417Z,2.29
2022-12-15T20:00:28.373Z,2.02
2022-12-15T20:02:55.801Z,2.00
2022-12-15T20:05:25.195Z,2.48
2022-12-15T20:07:53.589Z,2.66
2022-12-15T20:10:31.712Z,2.88
2022-12-15T20:13:00.681Z,2.75
2022-12-15T20:15:27.731Z,2.68
2022-12-15T20:17:57.870Z,2.85
2022-12-15T20:20:29.327Z,2.65
2022-12-15T20:23:01.588Z,2.30
2022-12-15T20:25:32.602Z,2.33
2022-12-15T20:28:03.160Z,2.42
2022-12-15T20:30:35.708Z,2.58
2022-12-15T20:33:04.900Z,2.22
2022-12-15T20:35:34.823Z,2.94
2022-12-15T20:38:17.304Z,3.03
2022-12-15T20:40:44.492Z,2.99
2022-12-15T20:43:17.374Z,3.03
2022-12-15T20:45:46.291Z,3.12
2022-12-15T20:48:15.230Z,3.10
2022-12-15T20:50:48.445Z,3.04
2022-12-15T20:53:21.585Z,3.19
2022-12-15T20:55:50.229Z,2.94
2022-12-15T20:58:18.743Z,2.91
2022-12-15T21:00:47.069Z,2.88
2022-12-15T21:03:26.725Z,2.87
2022-12-15T21:05:55.965Z,2.98
2022-12-15T21:08:29.831Z,2.82
2022-12-15T21:11:01.527Z,2.79
2022-12-15T21:13:31.980Z,2.26
2022-12-15T21:15:59.186Z,2.46
2022-12-15T21:21:22.924Z,2.60
2022-12-15T21:23:50.025Z,2.35
2022-12-15T21:26:24.032Z,2.63
2022-12-15T21:28:59.872Z,2.60
2022-12-15T21:31:27.080Z,2.72
2022-12-15T21:33:54.941Z,2.53
2022-12-15T21:36:22.484Z,2.72
2022-12-15T21:38:52.242Z,3.03
2022-12-15T21:41:22.226Z,3.23
2022-12-15T21:43:50.002Z,3.34
2022-12-15T21:46:24.616Z,3.33
2022-12-15T21:49:14.767Z,3.30
2022-12-15T21:51:43.953Z,3.08
2022-12-15T21:54:30.348Z,2.89
2022-12-15T21:56:58.147Z,3.19
2022-12-15T21:59:25.957Z,3.44
2022-12-15T22:01:55.409Z,4.17
2022-12-15T22:04:35.345Z,4.48
2022-12-15T22:07:02.483Z,4.81
2022-12-15T22:09:29.559Z,5.02
2022-12-15T22:11:56.999Z,5.20
2022-12-15T22:14:34.928Z,5.37
2022-12-15T22:17:18.083Z,5.43
2022-12-15T22:19:45.757Z,5.46
2022-12-15T22:22:14.030Z,5.56
2022-12-15T22:24:40.966Z,5.56
2022-12-15T22:27:26.824Z,5.68
2022-12-15T22:29:53.786Z,5.54
2022-12-15T22:32:20.694Z,5.16
2022-12-15T22:34:47.649Z,5.52
2022-12-15T22:37:14.486Z,5.61
2022-12-15T22:39:41.619Z,5.40
2022-12-15T22:42:17.189Z,5.24
2022-12-15T22:44:44.970Z,4.68
2022-12-15T22:47:12.170Z,5.21
2022-12-15T22:49:40.525Z,5.35
2022-12-15T22:52:21.206Z,5.00
2022-12-15T22:54:48.601Z,4.52
2022-12-15T22:57:18.404Z,4.81
2022-12-15T23:00:00.939Z,5.18
2022-12-15T23:02:32.804Z,5.31
2022-12-15T23:04:59.800Z,5.30
2022-12-15T23:07:26.699Z,5.42
2022-12-15T23:10:13.966Z,5.54
2022-12-15T23:12:41.240Z,5.57
2022-12-15T23:15:27.563Z,5.62
2022-12-15T23:17:54.637Z,5.64
2022-12-15T23:20:21.977Z,5.66
2022-12-15T23:22:48.841Z,5.64
2022-12-15T23:25:16.337Z,5.62
2022-12-15T23:27:43.209Z,5.65
2022-12-15T23:30:12.814Z,5.62
2022-12-15T23:32:39.711Z,5.69
2022-12-15T23:35:06.972Z,5.72
2022-12-15T23:37:35.118Z,5.63
2022-12-15T23:40:02.084Z,5.65
2022-12-15T23:42:29.038Z,5.72
2022-12-15T23:44:55.965Z,5.64
2022-12-15T23:47:23.046Z,5.66
2022-12-15T23:49:50.037Z,5.69
2022-12-15T23:52:18.555Z,5.62
2022-12-15T23:54:45.634Z,5.49
2022-12-15T23:57:12.572Z,5.47
2022-12-15T23:59:39.451Z,5.36
